createdAt,value
2023-04-26T00:01:24.132Z,6.66
2023-04-26T00:02:56.207Z,6.55
2023-04-26T00:04:47.493Z,6.58
2023-04-26T00:06:20.082Z,6.63
2023-04-26T00:07:51.684Z,6.51
2023-04-26T00:09:23.874Z,6.53
2023-04-26T00:10:55.588Z,6.48
2023-04-26T00:12:27.840Z,6.45
2023-04-26T00:13:59.644Z,6.40
2023-04-26T00:15:32.105Z,6.41
2023-04-26T00:17:04.433Z,6.48
2023-04-26T00:18:36.039Z,6.51
2023-04-26T00:20:10.498Z,6.42
2023-04-26T00:21:42.690Z,6.42
2023-04-26T00:23:14.344Z,6.43
2023-04-26T00:24:46.071Z,6.48
2023-04-26T00:26:17.739Z,6.39
2023-04-26T00:27:49.957Z,6.41
2023-04-26T00:29:22.383Z,6.30
2023-04-26T00:30:54.276Z,6.29
2023-04-26T00:32:26.251Z,6.24
2023-04-26T00:33:57.944Z,6.30
2023-04-26T00:35:29.688Z,6.31
2023-04-26T00:37:01.677Z,6.23
2023-04-26T00:38:33.352Z,6.24
2023-04-26T00:40:06.439Z,6.27
2023-04-26T00:41:38.165Z,6.22
2023-04-26T00:43:10.673Z,6.16
2023-04-26T00:44:42.955Z,6.16
2023-04-26T00:46:14.765Z,6.17
2023-04-26T00:47:46.706Z,6.16
2023-04-26T00:49:22.008Z,6.20
2023-04-26T00:50:53.872Z,6.19
2023-04-26T00:52:26.784Z,6.14
2023-04-26T00:53:59.579Z,6.15
2023-04-26T00:55:31.624Z,6.13
2023-04-26T00:57:03.812Z,6.12
2023-04-26T00:58:37.437Z,6.05
2023-04-26T01:00:10.285Z,6.10
2023-04-26T01:01:42.675Z,6.04
2023-04-26T01:03:14.735Z,6.05
2023-04-26T01:04:46.632Z,6.11
2023-04-26T01:06:18.300Z,6.13
2023-04-26T01:07:50.076Z,6.19
2023-04-26T01:09:22.383Z,6.19
2023-04-26T01:10:54.812Z,6.14
2023-04-26T01:12:26.746Z,6.14
2023-04-26T01:13:58.535Z,6.15
2023-04-26T01:15:33.574Z,6.13
2023-04-26T01:17:06.258Z,6.12
2023-04-26T01:18:37.905Z,6.16
2023-04-26T01:20:10.529Z,6.20
2023-04-26T01:21:43.005Z,6.03
2023-04-26T01:23:14.598Z,5.72
2023-04-26T01:24:51.176Z,5.71
2023-04-26T01:26:22.957Z,5.84
2023-04-26T01:27:54.643Z,5.93
2023-04-26T01:29:31.505Z,5.97
2023-04-26T01:31:03.439Z,5.86
2023-04-26T01:32:36.522Z,5.84
2023-04-26T01:34:08.194Z,5.87
2023-04-26T01:35:39.945Z,5.92
2023-04-26T01:37:11.670Z,5.93
2023-04-26T01:38:43.294Z,5.99
2023-04-26T01:40:14.971Z,5.94
2023-04-26T01:41:46.715Z,5.94
2023-04-26T01:43:23.029Z,5.74
2023-04-26T01:44:54.660Z,5.83
2023-04-26T01:46:27.519Z,5.83
2023-04-26T01:47:59.494Z,5.87
2023-04-26T01:49:31.466Z,5.80
2023-04-26T01:51:03.132Z,5.78
2023-04-26T01:52:34.803Z,5.77
2023-04-26T01:54:06.700Z,5.68
2023-04-26T01:55:38.414Z,5.68
2023-04-26T01:57:10.143Z,5.58
2023-04-26T01:58:41.916Z,5.55
2023-04-26T02:00:14.801Z,5.60
2023-04-26T02:01:47.017Z,5.64
2023-04-26T02:03:18.832Z,5.69
2023-04-26T02:04:50.880Z,5.71
2023-04-26T02:06:22.628Z,5.64
2023-04-26T02:07:56.612Z,5.52
2023-04-26T02:09:28.245Z,5.45
2023-04-26T02:10:59.929Z,5.35
2023-04-26T02:12:32.127Z,5.43
2023-04-26T02:14:03.705Z,5.40
2023-04-26T02:15:35.443Z,5.35
2023-04-26T02:17:07.091Z,5.42
2023-04-26T02:18:41.639Z,5.50
2023-04-26T02:20:13.319Z,5.54
2023-04-26T02:21:55.825Z,5.49
2023-04-26T02:23:27.684Z,5.44
2023-04-26T02:24:59.346Z,5.46
2023-04-26T02:26:32.762Z,5.43
2023-04-26T02:28:06.133Z,5.40
2023-04-26T02:29:44.446Z,5.36
2023-04-26T02:31:16.666Z,5.29
2023-04-26T02:32:48.424Z,5.28
2023-04-26T02:34:19.965Z,5.26
2023-04-26T02:35:51.685Z,5.24
2023-04-26T02:37:24.017Z,5.27
2023-04-26T02:38:55.764Z,5.09
2023-04-26T02:40:27.634Z,5.18
2023-04-26T02:42:00.448Z,5.18
2023-04-26T02:43:32.121Z,5.11
2023-04-26T02:45:04.118Z,5.23
2023-04-26T02:46:36.423Z,5.39
2023-04-26T02:48:08.178Z,5.37
2023-04-26T02:49:40.000Z,5.29
2023-04-26T02:51:11.636Z,5.38
2023-04-26T02:52:43.284Z,5.20
2023-04-26T02:54:14.934Z,5.23
2023-04-26T02:55:46.659Z,5.35
2023-04-26T02:57:18.294Z,5.20
2023-04-26T02:58:50.290Z,5.25
2023-04-26T03:00:23.643Z,5.33
2023-04-26T03:01:55.541Z,5.31
2023-04-26T03:03:27.368Z,5.36
2023-04-26T03:04:59.272Z,5.38
2023-04-26T03:06:31.310Z,5.43
2023-04-26T03:08:04.374Z,5.13
2023-04-26T03:09:38.770Z,5.23
2023-04-26T03:11:10.737Z,5.16
2023-04-26T03:12:42.661Z,4.97
2023-04-26T03:14:14.288Z,4.85
2023-04-26T03:15:46.697Z,4.99
2023-04-26T03:17:18.294Z,5.02
2023-04-26T03:18:50.857Z,5.08
2023-04-26T03:20:22.790Z,5.11
2023-04-26T03:21:55.718Z,5.24
2023-04-26T03:23:28.806Z,5.28
2023-04-26T03:25:00.486Z,5.35
2023-04-26T03:26:33.650Z,5.25
2023-04-26T03:28:05.465Z,5.25
2023-04-26T03:29:37.450Z,5.28
2023-04-26T03:31:09.323Z,5.37
2023-04-26T03:32:41.017Z,5.34
2023-04-26T03:34:12.752Z,5.31
2023-04-26T03:35:44.472Z,5.31
2023-04-26T03:37:16.331Z,5.24
2023-04-26T03:38:51.765Z,5.21
2023-04-26T03:40:24.316Z,5.16
2023-04-26T03:41:55.968Z,5.11
2023-04-26T03:43:27.747Z,5.14
2023-04-26T03:44:59.342Z,5.17
2023-04-26T03:46:31.018Z,5.13
2023-04-26T03:48:02.819Z,5.15
2023-04-26T03:49:34.456Z,5.20
2023-04-26T03:51:06.827Z,5.01
2023-04-26T03:52:38.517Z,5.11
2023-04-26T03:54:11.146Z,5.22
2023-04-26T03:55:42.773Z,5.21
2023-04-26T03:57:14.540Z,5.26
2023-04-26T03:58:46.557Z,5.30
2023-04-26T04:00:18.281Z,5.27
2023-04-26T04:01:51.642Z,5.19
2023-04-26T04:03:23.572Z,5.30
2023-04-26T04:04:57.349Z,5.36
2023-04-26T04:06:31.089Z,5.32
2023-04-26T04:08:03.004Z,5.42
2023-04-26T04:09:35.097Z,5.43
2023-04-26T04:11:06.844Z,5.33
2023-04-26T04:12:41.463Z,5.31
2023-04-26T04:14:13.313Z,5.23
2023-04-26T04:15:45.118Z,5.36
2023-04-26T04:17:17.277Z,5.39
2023-04-26T04:18:49.024Z,5.22
2023-04-26T04:20:21.435Z,5.02
2023-04-26T04:21:53.242Z,4.91
2023-04-26T04:23:24.935Z,4.90
2023-04-26T04:24:57.954Z,4.89
2023-04-26T04:26:29.731Z,4.82
2023-04-26T04:28:02.865Z,4.79
2023-04-26T04:29:35.064Z,4.86
2023-04-26T04:31:09.398Z,4.81
2023-04-26T04:32:44.909Z,4.79
2023-04-26T04:34:17.057Z,4.88
2023-04-26T04:35:49.880Z,4.83
2023-04-26T04:37:22.848Z,4.70
2023-04-26T04:38:54.956Z,4.84
2023-04-26T04:40:27.810Z,4.94
2023-04-26T04:42:00.460Z,4.76
2023-04-26T04:43:32.616Z,4.83
2023-04-26T04:45:05.099Z,4.90
2023-04-26T04:46:38.459Z,4.86
2023-04-26T04:48:11.470Z,4.93
2023-04-26T04:49:43.820Z,4.99
2023-04-26T04:51:15.740Z,4.99
2023-04-26T04:52:47.638Z,4.97
2023-04-26T04:54:19.828Z,4.99
2023-04-26T04:55:52.697Z,4.97
2023-04-26T04:57:24.625Z,5.01
2023-04-26T04:58:56.705Z,5.02
2023-04-26T05:00:28.884Z,4.96
2023-04-26T05:02:07.677Z,4.96
2023-04-26T05:03:39.641Z,4.96
2023-04-26T05:05:11.750Z,4.92
2023-04-26T05:06:43.953Z,4.98
2023-04-26T05:08:16.813Z,5.09
2023-04-26T05:09:48.648Z,5.13
2023-04-26T05:11:20.885Z,5.05
2023-04-26T05:12:52.550Z,5.03
2023-04-26T05:14:24.239Z,4.97
2023-04-26T05:15:56.240Z,4.97
2023-04-26T05:17:27.962Z,5.07
2023-04-26T05:18:59.887Z,5.17
2023-04-26T05:20:31.871Z,5.23
2023-04-26T05:22:04.846Z,5.31
2023-04-26T05:23:37.238Z,5.37
2023-04-26T05:25:10.588Z,5.33
2023-04-26T05:26:42.814Z,5.31
2023-04-26T05:28:14.823Z,5.32
2023-04-26T05:30:06.490Z,5.34
2023-04-26T05:32:01.336Z,5.41
2023-04-26T05:33:44.929Z,5.44
2023-04-26T05:35:22.104Z,5.45
2023-04-26T05:36:54.625Z,5.40
2023-04-26T05:38:26.431Z,5.35
2023-04-26T05:39:58.336Z,5.33
2023-04-26T05:41:31.053Z,5.29
2023-04-26T05:43:03.182Z,5.34
2023-04-26T05:44:36.102Z,4.87
2023-04-26T05:46:08.100Z,4.92
2023-04-26T05:47:39.832Z,5.09
2023-04-26T05:49:13.114Z,5.21
2023-04-26T05:50:44.727Z,5.36
2023-04-26T05:52:16.350Z,5.53
2023-04-26T05:53:48.082Z,5.64
2023-04-26T05:55:21.535Z,5.68
2023-04-26T05:56:54.244Z,5.68
2023-04-26T05:58:26.107Z,5.79
2023-04-26T05:59:57.806Z,5.62
2023-04-26T06:01:30.117Z,5.48
2023-04-26T06:03:02.196Z,5.58
2023-04-26T06:04:34.339Z,5.68
2023-04-26T06:06:11.287Z,5.84
2023-04-26T06:07:46.112Z,5.95
2023-04-26T06:09:19.657Z,5.93
2023-04-26T06:10:52.352Z,5.83
2023-04-26T06:12:24.363Z,5.91
2023-04-26T06:13:57.175Z,5.84
2023-04-26T06:15:31.777Z,5.79
2023-04-26T06:17:04.194Z,5.73
2023-04-26T06:18:36.320Z,5.53
2023-04-26T06:20:11.775Z,5.58
2023-04-26T06:21:43.426Z,5.80
2023-04-26T06:23:15.069Z,5.81
2023-04-26T06:24:46.756Z,5.82
2023-04-26T06:26:19.250Z,5.97
2023-04-26T06:27:50.856Z,5.98
2023-04-26T06:29:22.653Z,6.04
2023-04-26T06:30:54.418Z,5.92
2023-04-26T06:32:27.084Z,5.84
2023-04-26T06:33:59.240Z,5.73
2023-04-26T06:35:31.400Z,5.47
2023-04-26T06:37:04.448Z,5.61
2023-04-26T06:38:36.798Z,5.75
2023-04-26T06:40:08.966Z,5.91
2023-04-26T06:41:40.622Z,5.90
2023-04-26T06:43:15.145Z,6.04
2023-04-26T06:45:01.771Z,5.98
2023-04-26T06:46:33.551Z,6.13
2023-04-26T06:48:05.564Z,6.86
2023-04-26T06:49:38.378Z,6.96
2023-04-26T06:51:10.073Z,6.80
2023-04-26T06:52:41.751Z,7.00
2023-04-26T06:54:13.718Z,7.26
2023-04-26T06:55:45.982Z,7.35
2023-04-26T06:57:17.557Z,7.39
2023-04-26T06:59:00.832Z,7.34
2023-04-26T07:00:32.457Z,7.13
2023-04-26T07:02:04.192Z,7.91
2023-04-26T07:03:36.101Z,8.26
2023-04-26T07:05:08.942Z,8.28
2023-04-26T07:06:41.204Z,8.28
2023-04-26T07:08:13.049Z,8.55
2023-04-26T07:09:44.709Z,8.73
2023-04-26T07:11:16.390Z,8.42
2023-04-26T07:12:48.028Z,8.40
2023-04-26T07:14:19.678Z,8.12
2023-04-26T07:15:51.486Z,8.01
2023-04-26T07:17:23.160Z,8.20
2023-04-26T07:18:58.169Z,8.41
2023-04-26T07:20:29.810Z,8.57
2023-04-26T07:22:01.741Z,8.87
2023-04-26T07:23:33.481Z,8.63
2023-04-26T07:25:05.625Z,8.36
2023-04-26T07:26:37.372Z,8.03
2023-04-26T07:28:09.106Z,8.18
2023-04-26T07:29:40.695Z,8.58
2023-04-26T07:31:12.690Z,8.41
2023-04-26T07:32:44.532Z,8.31
2023-04-26T07:34:16.313Z,8.72
2023-04-26T07:35:56.333Z,8.75
2023-04-26T07:37:27.969Z,8.87
2023-04-26T07:38:59.688Z,9.00
2023-04-26T07:40:31.689Z,8.95
2023-04-26T07:42:03.586Z,8.85
2023-04-26T07:43:35.399Z,9.20
2023-04-26T07:45:08.526Z,8.86
2023-04-26T07:46:40.142Z,8.86
2023-04-26T07:48:12.067Z,8.61
2023-04-26T07:49:44.809Z,9.01
2023-04-26T07:51:17.355Z,8.92
2023-04-26T07:52:49.040Z,9.36
2023-04-26T07:54:20.913Z,9.04
2023-04-26T07:55:52.665Z,9.11
2023-04-26T07:57:24.585Z,9.28
2023-04-26T07:58:56.282Z,9.18
2023-04-26T08:00:27.998Z,9.30
2023-04-26T08:01:59.689Z,10.24
2023-04-26T08:03:31.740Z,10.75
2023-04-26T08:05:04.516Z,11.56
2023-04-26T08:06:39.400Z,11.01
2023-04-26T08:08:12.602Z,11.42
2023-04-26T08:09:44.602Z,10.56
2023-04-26T08:11:16.873Z,11.44
2023-04-26T08:12:48.517Z,11.12
2023-04-26T08:14:20.211Z,11.30
2023-04-26T08:15:52.762Z,10.60
2023-04-26T08:17:24.365Z,10.08
2023-04-26T08:19:02.576Z,10.25
2023-04-26T08:20:34.411Z,10.51
2023-04-26T08:22:06.341Z,10.93
2023-04-26T08:23:38.112Z,10.30
2023-04-26T08:25:10.764Z,10.93
2023-04-26T08:26:42.380Z,10.80
2023-04-26T08:28:14.570Z,10.77
2023-04-26T08:29:46.523Z,10.32
2023-04-26T08:31:18.370Z,10.99
2023-04-26T08:32:50.139Z,11.11
2023-04-26T08:34:22.228Z,10.97
2023-04-26T08:35:53.937Z,11.07
2023-04-26T08:37:26.510Z,11.04
2023-04-26T08:38:59.812Z,11.06
2023-04-26T08:40:32.940Z,11.15
2023-04-26T08:42:08.409Z,10.89
2023-04-26T08:43:40.246Z,11.38
2023-04-26T08:45:11.896Z,11.66
2023-04-26T08:47:09.888Z,11.59
2023-04-26T08:48:41.544Z,11.53
2023-04-26T08:50:15.863Z,11.63
2023-04-26T08:51:47.917Z,11.29
2023-04-26T08:53:20.284Z,10.81
2023-04-26T08:54:52.866Z,10.76
2023-04-26T08:56:25.766Z,11.54
2023-04-26T08:57:58.155Z,11.97
2023-04-26T08:59:48.666Z,12.01
2023-04-26T09:01:21.738Z,12.58
2023-04-26T09:02:53.993Z,12.58
2023-04-26T09:04:26.035Z,12.37
2023-04-26T09:05:58.534Z,12.50
2023-04-26T09:07:41.580Z,12.47
2023-04-26T09:09:18.360Z,12.58
2023-04-26T09:10:49.995Z,11.50
2023-04-26T09:12:21.634Z,11.49
2023-04-26T09:13:53.534Z,11.84
2023-04-26T09:15:27.617Z,11.20
2023-04-26T09:16:59.612Z,10.25
2023-04-26T09:18:33.585Z,11.05
2023-04-26T09:20:31.359Z,12.00
2023-04-26T09:22:03.376Z,12.65
2023-04-26T09:23:35.533Z,12.70
2023-04-26T09:25:08.313Z,12.96
2023-04-26T09:26:40.853Z,12.01
2023-04-26T09:28:21.653Z,12.09
2023-04-26T09:30:26.604Z,12.54
2023-04-26T09:31:58.554Z,12.39
2023-04-26T09:33:30.193Z,12.83
2023-04-26T09:35:01.739Z,12.68
2023-04-26T09:36:33.449Z,12.47
2023-04-26T09:38:10.937Z,12.66
2023-04-26T09:39:43.719Z,12.61
2023-04-26T09:41:15.572Z,12.66
2023-04-26T09:42:47.575Z,12.61
2023-04-26T09:44:24.577Z,12.43
2023-04-26T09:45:58.134Z,12.85
2023-04-26T09:47:30.076Z,12.60
2023-04-26T09:49:02.989Z,12.91
2023-04-26T09:50:34.602Z,12.83
2023-04-26T09:52:06.869Z,12.58
2023-04-26T09:53:42.371Z,12.44
2023-04-26T09:55:34.608Z,12.82
2023-04-26T09:57:06.817Z,13.08
2023-04-26T09:58:59.013Z,12.84
2023-04-26T10:00:31.480Z,12.42
2023-04-26T10:02:03.862Z,12.24
2023-04-26T10:03:37.248Z,12.71
2023-04-26T10:05:09.859Z,12.34
2023-04-26T10:06:41.709Z,12.29
2023-04-26T10:08:13.446Z,12.76
2023-04-26T10:09:46.952Z,13.21
2023-04-26T10:11:18.897Z,13.24
2023-04-26T10:12:50.481Z,12.95
2023-04-26T10:14:22.466Z,12.52
2023-04-26T10:15:54.391Z,12.90
2023-04-26T10:17:26.281Z,12.39
2023-04-26T10:18:59.026Z,12.99
2023-04-26T10:20:31.498Z,12.68
2023-04-26T10:22:10.607Z,13.09
2023-04-26T10:23:42.694Z,13.06
2023-04-26T10:25:14.384Z,13.46
2023-04-26T10:26:57.490Z,13.39
2023-04-26T10:28:41.489Z,13.02
2023-04-26T10:30:15.617Z,12.27
2023-04-26T10:32:02.985Z,12.52
2023-04-26T10:33:34.817Z,12.29
2023-04-26T10:35:13.586Z,13.02
2023-04-26T10:37:11.475Z,12.82
2023-04-26T10:39:18.681Z,12.46
2023-04-26T10:40:50.917Z,13.41
2023-04-26T10:42:28.217Z,14.17
2023-04-26T10:44:22.159Z,13.71
2023-04-26T10:45:56.752Z,14.53
2023-04-26T10:47:33.901Z,14.72
2023-04-26T10:49:18.879Z,14.44
2023-04-26T10:51:04.812Z,14.36
2023-04-26T10:53:03.470Z,14.79
2023-04-26T10:55:06.367Z,14.45
2023-04-26T10:56:38.067Z,14.65
2023-04-26T10:58:32.783Z,13.65
2023-04-26T11:00:10.453Z,14.24
2023-04-26T11:01:42.342Z,14.74
2023-04-26T11:03:15.244Z,14.81
2023-04-26T11:04:53.469Z,13.79
2023-04-26T11:06:26.830Z,14.01
2023-04-26T11:08:17.428Z,14.12
2023-04-26T11:09:49.343Z,14.04
2023-04-26T11:11:26.926Z,14.35
2023-04-26T11:13:03.387Z,14.32
2023-04-26T11:14:35.629Z,13.18
2023-04-26T11:16:09.695Z,13.71
2023-04-26T11:17:41.375Z,13.89
2023-04-26T11:19:13.000Z,13.20
2023-04-26T11:20:44.840Z,13.67
2023-04-26T11:22:16.691Z,14.08
2023-04-26T11:23:55.100Z,14.00
2023-04-26T11:25:28.361Z,13.96
2023-04-26T11:26:59.883Z,14.24
2023-04-26T11:28:34.223Z,14.25
2023-04-26T11:30:07.083Z,14.07
2023-04-26T11:31:38.703Z,13.72
2023-04-26T11:33:22.373Z,14.33
2023-04-26T11:34:53.992Z,14.43
2023-04-26T11:36:25.648Z,14.35
2023-04-26T11:38:01.006Z,14.41
2023-04-26T11:39:33.912Z,14.66
2023-04-26T11:41:05.632Z,14.12
2023-04-26T11:42:37.447Z,13.82
2023-04-26T11:44:11.593Z,13.64
2023-04-26T11:45:43.206Z,13.84
2023-04-26T11:47:14.890Z,14.69
2023-04-26T11:48:47.038Z,14.86
2023-04-26T11:50:21.470Z,15.13
2023-04-26T11:51:54.797Z,14.74
2023-04-26T11:53:38.999Z,15.37
2023-04-26T11:55:11.799Z,14.70
2023-04-26T11:56:44.045Z,14.93
2023-04-26T11:58:16.698Z,15.18
2023-04-26T11:59:49.758Z,15.12
2023-04-26T12:01:30.231Z,15.78
2023-04-26T12:03:11.898Z,15.45
2023-04-26T12:04:45.223Z,15.08
2023-04-26T12:06:19.033Z,15.71
2023-04-26T12:07:57.510Z,15.68
2023-04-26T12:09:32.017Z,15.19
2023-04-26T12:11:06.027Z,15.27
2023-04-26T12:12:44.293Z,15.73
2023-04-26T12:14:17.806Z,15.88
2023-04-26T12:15:51.453Z,15.30
2023-04-26T12:17:23.328Z,15.82
2023-04-26T12:19:00.113Z,16.06
2023-04-26T12:20:40.016Z,15.63
2023-04-26T12:22:12.076Z,15.94
2023-04-26T12:23:47.917Z,16.40
2023-04-26T12:25:20.660Z,16.81
2023-04-26T12:26:53.911Z,16.61
2023-04-26T12:28:27.067Z,16.04
2023-04-26T12:30:01.010Z,16.44
2023-04-26T12:31:33.383Z,16.47
2023-04-26T12:33:16.538Z,16.87
2023-04-26T12:34:50.744Z,16.34
2023-04-26T12:36:23.987Z,16.15
2023-04-26T12:37:57.759Z,16.75
2023-04-26T12:39:30.740Z,17.22
2023-04-26T12:41:04.321Z,17.21
2023-04-26T12:42:37.866Z,17.49
2023-04-26T12:44:11.551Z,17.17
2023-04-26T12:45:44.731Z,16.92
2023-04-26T12:47:17.699Z,17.20
2023-04-26T12:48:51.264Z,17.56
2023-04-26T12:50:24.465Z,18.57
2023-04-26T12:51:57.542Z,19.95
2023-04-26T12:53:30.585Z,19.46
2023-04-26T12:55:06.269Z,21.10
2023-04-26T12:56:44.002Z,25.24
2023-04-26T12:58:17.134Z,26.51
2023-04-26T12:59:50.459Z,28.57
2023-04-26T13:01:23.513Z,29.24
2023-04-26T13:02:57.505Z,23.39
2023-04-26T13:04:30.436Z,21.06
2023-04-26T13:06:04.215Z,23.22
2023-04-26T13:07:39.961Z,24.64
2023-04-26T13:09:14.404Z,29.26
2023-04-26T13:10:46.627Z,29.57
2023-04-26T13:12:19.727Z,29.57
2023-04-26T13:13:52.518Z,24.39
2023-04-26T13:15:27.354Z,27.94
2023-04-26T13:17:00.842Z,25.33
2023-04-26T13:18:34.301Z,25.23
2023-04-26T13:20:07.678Z,25.91
2023-04-26T13:21:42.801Z,28.86
2023-04-26T13:23:15.766Z,31.39
2023-04-26T13:24:48.718Z,31.07
2023-04-26T13:26:21.539Z,34.45
2023-04-26T13:27:56.277Z,31.69
2023-04-26T13:29:29.344Z,31.49
2023-04-26T13:31:02.405Z,29.81
2023-04-26T13:32:35.856Z,31.69
2023-04-26T13:34:08.946Z,30.78
2023-04-26T13:35:41.202Z,26.69
2023-04-26T13:37:12.923Z,28.20
2023-04-26T13:38:44.904Z,26.95
2023-04-26T13:40:17.100Z,22.25
2023-04-26T13:41:48.718Z,21.04
2023-04-26T13:43:20.426Z,19.92
2023-04-26T13:44:52.085Z,21.97
2023-04-26T13:46:23.856Z,25.14
2023-04-26T13:47:55.897Z,26.68
2023-04-26T13:49:27.603Z,26.39
2023-04-26T13:50:59.381Z,24.30
2023-04-26T13:52:31.638Z,22.52
2023-04-26T13:54:05.879Z,20.53
2023-04-26T13:55:37.825Z,20.75
2023-04-26T13:57:09.731Z,18.74
2023-04-26T13:58:43.311Z,18.58
2023-04-26T14:00:16.491Z,18.95
2023-04-26T14:01:49.337Z,17.75
2023-04-26T14:03:22.510Z,17.42
2023-04-26T14:04:54.582Z,17.48
2023-04-26T14:06:27.098Z,18.00
2023-04-26T14:07:58.930Z,17.85
2023-04-26T14:09:32.236Z,17.40
2023-04-26T14:11:05.627Z,17.05
2023-04-26T14:12:38.391Z,16.73
2023-04-26T14:14:11.554Z,16.96
2023-04-26T14:15:44.543Z,16.78
2023-04-26T14:17:18.209Z,16.76
2023-04-26T14:18:51.761Z,16.66
2023-04-26T14:20:24.520Z,16.37
2023-04-26T14:21:58.070Z,15.46
2023-04-26T14:23:31.339Z,15.32
2023-04-26T14:25:04.550Z,14.90
2023-04-26T14:26:36.351Z,14.80
2023-04-26T14:28:08.437Z,15.06
2023-04-26T14:29:40.596Z,15.47
2023-04-26T14:31:12.824Z,15.80
2023-04-26T14:32:45.967Z,15.86
2023-04-26T14:34:19.095Z,15.69
2023-04-26T14:35:51.462Z,15.39
2023-04-26T14:37:24.434Z,15.61
2023-04-26T14:38:56.324Z,15.79
2023-04-26T14:40:28.180Z,15.68
2023-04-26T14:42:00.366Z,15.43
2023-04-26T14:43:33.708Z,16.16
2023-04-26T14:45:06.218Z,16.13
2023-04-26T14:46:37.832Z,16.29
2023-04-26T14:48:09.778Z,16.23
2023-04-26T14:49:41.416Z,15.94
2023-04-26T14:51:13.166Z,15.99
2023-04-26T14:52:44.773Z,16.04
2023-04-26T14:54:17.159Z,16.11
2023-04-26T14:55:58.036Z,15.58
2023-04-26T14:57:30.057Z,15.31
2023-04-26T14:59:02.620Z,15.38
2023-04-26T15:00:34.778Z,15.38
2023-04-26T15:02:07.368Z,15.38
2023-04-26T15:03:39.435Z,15.06
2023-04-26T15:05:12.864Z,15.54
2023-04-26T15:06:45.201Z,15.79
2023-04-26T15:08:18.017Z,16.23
2023-04-26T15:09:50.227Z,15.71
2023-04-26T15:11:22.008Z,16.09
2023-04-26T15:12:54.003Z,16.23
2023-04-26T15:14:25.700Z,15.88
2023-04-26T15:15:57.442Z,16.22
2023-04-26T15:17:32.573Z,15.79
2023-04-26T15:19:04.372Z,15.60
2023-04-26T15:20:40.599Z,15.51
2023-04-26T15:22:13.314Z,15.07
2023-04-26T15:23:45.157Z,15.10
2023-04-26T15:25:17.228Z,15.26
2023-04-26T15:26:48.924Z,15.31
2023-04-26T15:28:20.634Z,15.39
2023-04-26T15:29:53.362Z,15.22
2023-04-26T15:31:25.028Z,14.70
2023-04-26T15:32:57.125Z,14.71
2023-04-26T15:34:30.162Z,14.71
2023-04-26T15:36:01.760Z,14.83
2023-04-26T15:37:37.078Z,15.05
2023-04-26T15:39:08.749Z,15.04
2023-04-26T15:40:40.615Z,15.23
2023-04-26T15:42:12.367Z,15.22
2023-04-26T15:43:43.974Z,14.73
2023-04-26T15:45:15.778Z,14.76
2023-04-26T15:46:47.541Z,14.88
2023-04-26T15:48:19.305Z,14.79
2023-04-26T15:49:51.144Z,14.73
2023-04-26T15:51:22.810Z,14.71
2023-04-26T15:52:54.520Z,14.67
2023-04-26T15:54:26.764Z,14.71
2023-04-26T15:55:58.416Z,14.76
2023-04-26T15:57:30.548Z,14.72
2023-04-26T15:59:02.398Z,14.87
2023-04-26T16:00:34.359Z,14.56
2023-04-26T16:02:07.294Z,14.38
2023-04-26T16:03:39.769Z,14.17
2023-04-26T16:05:13.422Z,14.20
2023-04-26T16:06:45.849Z,14.31
2023-04-26T16:08:27.747Z,14.15
2023-04-26T16:10:11.169Z,14.12
2023-04-26T16:11:44.311Z,14.15
2023-04-26T16:13:16.222Z,14.26
2023-04-26T16:14:48.980Z,14.30
2023-04-26T16:16:20.693Z,14.13
2023-04-26T16:17:52.550Z,14.08
2023-04-26T16:19:26.797Z,14.14
2023-04-26T16:21:06.575Z,14.05
2023-04-26T16:22:38.861Z,13.88
2023-04-26T16:24:11.884Z,13.92
2023-04-26T16:25:45.087Z,14.04
2023-04-26T16:27:17.174Z,14.03
2023-04-26T16:28:49.472Z,13.97
2023-04-26T16:30:21.306Z,13.91
2023-04-26T16:31:54.366Z,13.62
2023-04-26T16:33:26.827Z,13.57
2023-04-26T16:34:58.662Z,13.55
2023-04-26T16:36:31.647Z,13.52
2023-04-26T16:38:03.531Z,13.46
2023-04-26T16:39:36.089Z,13.61
2023-04-26T16:41:08.784Z,13.64
2023-04-26T16:42:44.520Z,13.61
2023-04-26T16:44:16.795Z,13.56
2023-04-26T16:46:00.462Z,13.54
2023-04-26T16:47:32.143Z,13.55
2023-04-26T16:49:09.423Z,13.53
2023-04-26T16:50:43.192Z,13.46
2023-04-26T16:52:15.026Z,13.54
2023-04-26T16:53:46.674Z,13.51
2023-04-26T16:55:18.893Z,13.43
2023-04-26T16:56:50.984Z,13.41
2023-04-26T16:58:23.024Z,13.42
2023-04-26T16:59:55.065Z,13.46
2023-04-26T17:01:26.952Z,13.43
2023-04-26T17:02:59.779Z,13.41
2023-04-26T17:06:07.747Z,13.30
2023-04-26T17:07:39.378Z,13.25
2023-04-26T17:09:12.739Z,13.28
2023-04-26T17:10:46.160Z,13.31
2023-04-26T17:12:18.010Z,13.20
2023-04-26T17:13:49.922Z,13.22
2023-04-26T17:15:22.124Z,13.26
2023-04-26T17:16:53.655Z,13.23
2023-04-26T17:18:25.555Z,13.32
2023-04-26T17:19:57.777Z,13.31
2023-04-26T17:21:29.578Z,13.16
2023-04-26T17:23:04.138Z,13.02
2023-04-26T17:24:37.377Z,13.01
2023-04-26T17:26:09.849Z,13.00
2023-04-26T17:27:42.045Z,13.01
2023-04-26T17:29:14.051Z,12.95
2023-04-26T17:30:45.715Z,12.91
2023-04-26T17:32:17.334Z,12.95
2023-04-26T17:33:48.995Z,12.89
2023-04-26T17:35:20.833Z,12.81
2023-04-26T17:36:53.731Z,12.85
2023-04-26T17:38:25.477Z,12.77
2023-04-26T17:39:57.192Z,12.44
2023-04-26T17:41:28.916Z,12.52
2023-04-26T17:43:00.655Z,12.48
2023-04-26T17:44:32.524Z,12.43
2023-04-26T17:46:04.701Z,12.46
2023-04-26T17:47:36.547Z,12.49
2023-04-26T17:49:08.275Z,12.25
2023-04-26T17:50:40.111Z,12.26
2023-04-26T17:52:11.971Z,12.36
2023-04-26T17:53:43.689Z,12.39
2023-04-26T17:55:16.272Z,12.31
2023-04-26T17:56:47.903Z,12.24
2023-04-26T17:58:19.632Z,12.05
2023-04-26T17:59:52.141Z,12.16
2023-04-26T18:01:24.013Z,12.15
2023-04-26T18:02:57.988Z,12.02
2023-04-26T18:04:30.174Z,11.76
2023-04-26T18:06:02.142Z,11.66
2023-04-26T18:07:33.880Z,11.66
2023-04-26T18:09:05.442Z,11.68
2023-04-26T18:12:20.447Z,11.70
2023-04-26T18:13:52.290Z,11.76
2023-04-26T18:15:24.233Z,11.63
2023-04-26T18:16:56.278Z,11.69
2023-04-26T18:18:28.164Z,11.70
2023-04-26T18:20:00.001Z,11.62
2023-04-26T18:21:31.663Z,11.54
2023-04-26T18:23:03.957Z,11.62
2023-04-26T18:24:35.943Z,11.62
2023-04-26T18:26:08.074Z,11.61
2023-04-26T18:27:40.405Z,11.73
2023-04-26T18:29:12.281Z,11.63
2023-04-26T18:30:43.978Z,11.63
2023-04-26T18:32:17.485Z,11.48
2023-04-26T18:33:50.367Z,11.48
2023-04-26T18:35:23.539Z,11.38
2023-04-26T18:36:55.895Z,11.31
2023-04-26T18:38:29.321Z,11.27
2023-04-26T18:40:01.640Z,11.31
2023-04-26T18:41:33.890Z,11.22
2023-04-26T18:43:06.439Z,11.20
2023-04-26T18:44:38.572Z,11.17
2023-04-26T18:46:10.328Z,11.12
2023-04-26T18:47:42.095Z,11.07
2023-04-26T18:49:14.070Z,11.10
2023-04-26T18:50:51.351Z,11.15
2023-04-26T18:52:23.136Z,11.19
2023-04-26T18:53:54.868Z,11.03
2023-04-26T18:55:27.042Z,10.92
2023-04-26T18:57:00.289Z,10.95
2023-04-26T18:58:33.426Z,11.05
2023-04-26T19:00:07.921Z,11.08
2023-04-26T19:01:39.879Z,11.03
2023-04-26T19:03:11.648Z,10.94
2023-04-26T19:04:43.846Z,10.93
2023-04-26T19:06:16.831Z,10.85
2023-04-26T19:07:52.765Z,10.77
2023-04-26T19:09:24.757Z,10.85
2023-04-26T19:10:56.755Z,10.95
2023-04-26T19:12:28.560Z,10.92
2023-04-26T19:14:00.162Z,10.94
2023-04-26T19:15:32.067Z,10.97
2023-04-26T19:17:04.184Z,11.01
2023-04-26T19:18:37.249Z,11.03
2023-04-26T19:20:13.158Z,11.02
2023-04-26T19:21:45.873Z,10.97
2023-04-26T19:23:18.237Z,10.97
2023-04-26T19:24:51.116Z,10.79
2023-04-26T19:26:23.856Z,10.82
2023-04-26T19:27:56.827Z,10.74
2023-04-26T19:29:29.947Z,10.76
2023-04-26T19:31:03.660Z,10.83
2023-04-26T19:32:37.471Z,10.90
2023-04-26T19:34:12.577Z,10.98
2023-04-26T19:35:45.926Z,11.01
2023-04-26T19:37:19.039Z,11.04
2023-04-26T19:38:52.254Z,11.04
2023-04-26T19:40:24.962Z,11.07
2023-04-26T19:41:57.356Z,10.93
2023-04-26T19:43:29.601Z,10.78
2023-04-26T19:45:01.497Z,10.76
2023-04-26T19:46:34.556Z,10.88
2023-04-26T19:48:09.065Z,10.91
2023-04-26T19:49:40.933Z,10.91
2023-04-26T19:51:17.681Z,10.88
2023-04-26T19:52:49.655Z,10.92
2023-04-26T19:54:22.447Z,10.88
2023-04-26T19:55:55.379Z,10.90
2023-04-26T19:57:28.580Z,10.92
2023-04-26T19:59:02.092Z,10.94
2023-04-26T20:00:39.273Z,10.77
2023-04-26T20:02:12.829Z,10.67
2023-04-26T20:03:47.012Z,10.70
2023-04-26T20:05:20.793Z,10.63
2023-04-26T20:06:53.007Z,10.69
2023-04-26T20:08:25.142Z,10.77
2023-04-26T20:09:57.288Z,10.79
2023-04-26T20:11:29.354Z,10.65
2023-04-26T20:13:03.073Z,10.69
2023-04-26T20:14:35.697Z,10.68
2023-04-26T20:16:08.363Z,10.60
2023-04-26T20:17:41.820Z,10.43
2023-04-26T20:19:19.337Z,10.41
2023-04-26T20:20:52.306Z,10.45
2023-04-26T20:22:24.352Z,10.56